Hague, Canada
Current Conditions -  °F | °C
As of 6:00 AM on Saturday 25 Oct 2014 (Local Time) from CYXE Reporting Station
Clear Clear  
Wind Chill: 15°   Ceiling: Unl
Heat Index: 25°   Visibility: 15mi
Dew Point: 23°   Wind: 10mph
Humidity: 93%   Direction: 230°SW
Pressure: 30.04"   Gusts: NA
Location:  52.51°N, 106.42°W
Report Text: CYXE 251200Z 23009KT 15SM SKC M04/M05 A3004 RMK SLP197
Loading
Personal Weather Stations






























Interactive Weather Map
Tropical Storm Tracking
New forecast layout! Learn more

10-Day Weather Forecast

Advertisements
Track Severe Weather on mobile